sensor_id;sensor_type;location;lat;lon;timestamp;temperature;humidity
36552;DHT22;22559;54.176;12.102;2023-01-01T00:01:11;15.10;99.90
36552;DHT22;22559;54.176;12.102;2023-01-01T00:03:37;15.10;99.90
36552;DHT22;22559;54.176;12.102;2023-01-01T00:06:07;15.10;99.90
36552;DHT22;22559;54.176;12.102;2023-01-01T00:08:34;15.10;99.90
36552;DHT22;22559;54.176;12.102;2023-01-01T00:11:04;15.20;99.90
36552;DHT22;22559;54.176;12.102;2023-01-01T00:13:30;15.20;99.90
36552;DHT22;22559;54.176;12.102;2023-01-01T00:16:02;15.30;99.90
36552;DHT22;22559;54.176;12.102;2023-01-01T00:18:27;15.30;99.90
36552;DHT22;22559;54.176;12.102;2023-01-01T00:21:04;15.20;99.90
36552;DHT22;22559;54.176;12.102;2023-01-01T00:23:30;15.20;99.90
36552;DHT22;22559;54.176;12.102;2023-01-01T00:25:57;15.20;99.90
36552;DHT22;22559;54.176;12.102;2023-01-01T00:28:22;15.20;99.90
36552;DHT22;22559;54.176;12.102;2023-01-01T00:30:48;15.20;99.90
36552;DHT22;22559;54.176;12.102;2023-01-01T00:33:13;15.20;99.90
36552;DHT22;22559;54.176;12.102;2023-01-01T00:35:39;15.20;99.90
36552;DHT22;22559;54.176;12.102;2023-01-01T00:38:05;15.20;99.90
36552;DHT22;22559;54.176;12.102;2023-01-01T00:40:31;15.30;99.90
36552;DHT22;22559;54.176;12.102;2023-01-01T00:42:57;15.30;99.90
36552;DHT22;22559;54.176;12.102;2023-01-01T00:45:23;15.30;99.90
36552;DHT22;22559;54.176;12.102;2023-01-01T00:47:52;15.40;99.90
36552;DHT22;22559;54.176;12.102;2023-01-01T00:50:19;15.40;99.90
36552;DHT22;22559;54.176;12.102;2023-01-01T00:52:45;15.40;99.90
36552;DHT22;22559;54.176;12.102;2023-01-01T00:55:11;15.40;99.90
36552;DHT22;22559;54.176;12.102;2023-01-01T00:57:37;15.40;99.90
36552;DHT22;22559;54.176;12.102;2023-01-01T01:00:03;15.40;99.90
36552;DHT22;22559;54.176;12.102;2023-01-01T01:02:29;15.50;99.90
36552;DHT22;22559;54.176;12.102;2023-01-01T01:04:55;15.40;99.90
36552;DHT22;22559;54.176;12.102;2023-01-01T01:07:21;15.50;99.90
36552;DHT22;22559;54.176;12.102;2023-01-01T01:09:46;15.50;99.90
36552;DHT22;22559;54.176;12.102;2023-01-01T01:12:12;15.50;99.90
36552;DHT22;22559;54.176;12.102;2023-01-01T01:14:37;15.50;99.90
36552;DHT22;22559;54.176;12.102;2023-01-01T01:17:03;15.60;99.90
36552;DHT22;22559;54.176;12.102;2023-01-01T01:19:29;15.60;99.90
36552;DHT22;22559;54.176;12.102;2023-01-01T01:21:54;15.60;99.90
36552;DHT22;22559;54.176;12.102;2023-01-01T01:24:20;15.60;99.90
36552;DHT22;22559;54.176;12.102;2023-01-01T01:26:45;15.70;99.90
36552;DHT22;22559;54.176;12.102;2023-01-01T01:29:11;15.70;99.90
36552;DHT22;22559;54.176;12.102;2023-01-01T01:31:37;15.80;99.90
36552;DHT22;22559;54.176;12.102;2023-01-01T01:34:02;15.80;99.90
36552;DHT22;22559;54.176;12.102;2023-01-01T01:36:28;15.80;99.90
36552;DHT22;22559;54.176;12.102;2023-01-01T01:38:54;15.80;99.90
36552;DHT22;22559;54.176;12.102;2023-01-01T01:41:22;15.80;99.90
36552;DHT22;22559;54.176;12.102;2023-01-01T01:43:59;15.80;99.90
36552;DHT22;22559;54.176;12.102;2023-01-01T01:46:37;15.80;99.90
36552;DHT22;22559;54.176;12.102;2023-01-01T01:49:14;15.90;99.90
36552;DHT22;22559;54.176;12.102;2023-01-01T01:51:41;15.80;99.90
36552;DHT22;22559;54.176;12.102;2023-01-01T01:54:14;15.80;99.90
36552;DHT22;22559;54.176;12.102;2023-01-01T01:59:10;15.80;99.90
36552;DHT22;22559;54.176;12.102;2023-01-01T02:01:36;15.80;99.90
36552;DHT22;22559;54.176;12.102;2023-01-01T02:04:02;15.80;99.90
36552;DHT22;22559;54.176;12.102;2023-01-01T02:06:30;15.90;99.90
36552;DHT22;22559;54.176;12.102;2023-01-01T02:08:56;15.90;99.90
36552;DHT22;22559;54.176;12.102;2023-01-01T02:11:24;15.90;99.90
36552;DHT22;22559;54.176;12.102;2023-01-01T02:13:50;15.90;99.90
36552;DHT22;22559;54.176;12.102;2023-01-01T02:22:29;15.90;99.90
36552;DHT22;22559;54.176;12.102;2023-01-01T02:28:05;15.90;99.90
36552;DHT22;22559;54.176;12.102;2023-01-01T02:30:38;15.90;99.90
36552;DHT22;22559;54.176;12.102;2023-01-01T02:33:11;15.90;99.90
36552;DHT22;22559;54.176;12.102;2023-01-01T02:35:51;15.90;99.90
36552;DHT22;22559;54.176;12.102;2023-01-01T02:38:32;15.90;99.90
36552;DHT22;22559;54.176;12.102;2023-01-01T02:41:01;15.90;99.90
36552;DHT22;22559;54.176;12.102;2023-01-01T02:43:28;15.90;99.90
36552;DHT22;22559;54.176;12.102;2023-01-01T02:45:54;15.90;99.90
36552;DHT22;22559;54.176;12.102;2023-01-01T02:48:43;15.80;99.90
36552;DHT22;22559;54.176;12.102;2023-01-01T03:08:18;15.90;99.90
36552;DHT22;22559;54.176;12.102;2023-01-01T03:11:01;15.90;99.90
36552;DHT22;22559;54.176;12.102;2023-01-01T03:16:26;16.00;99.90
36552;DHT22;22559;54.176;12.102;2023-01-01T03:24:25;15.90;99.90
36552;DHT22;22559;54.176;12.102;2023-01-01T03:26:54;16.00;99.90
36552;DHT22;22559;54.176;12.102;2023-01-01T03:29:22;16.10;99.90
36552;DHT22;22559;54.176;12.102;2023-01-01T03:31:51;16.10;99.90
36552;DHT22;22559;54.176;12.102;2023-01-01T03:34:22;16.00;99.90
36552;DHT22;22559;54.176;12.102;2023-01-01T03:36:52;16.00;99.90
36552;DHT22;22559;54.176;12.102;2023-01-01T03:39:26;15.90;99.90
36552;DHT22;22559;54.176;12.102;2023-01-01T03:42:36;15.90;99.90
36552;DHT22;22559;54.176;12.102;2023-01-01T03:44:49;15.90;99.90
36552;DHT22;22559;54.176;12.102;2023-01-01T03:47:16;15.80;99.90
36552;DHT22;22559;54.176;12.102;2023-01-01T03:49:43;15.80;99.90
36552;DHT22;22559;54.176;12.102;2023-01-01T03:55:22;15.80;99.90
36552;DHT22;22559;54.176;12.102;2023-01-01T04:00:20;15.70;99.90
36552;DHT22;22559;54.176;12.102;2023-01-01T04:03:05;15.70;99.90
36552;DHT22;22559;54.176;12.102;2023-01-01T04:05:38;15.70;99.90
36552;DHT22;22559;54.176;12.102;2023-01-01T04:08:04;15.70;99.90
36552;DHT22;22559;54.176;12.102;2023-01-01T04:10:32;15.70;99.90
36552;DHT22;22559;54.176;12.102;2023-01-01T04:13:02;15.70;99.90
36552;DHT22;22559;54.176;12.102;2023-01-01T04:15:28;15.80;99.90
36552;DHT22;22559;54.176;12.102;2023-01-01T04:17:54;15.70;99.90
36552;DHT22;22559;54.176;12.102;2023-01-01T04:20:20;15.70;99.90
36552;DHT22;22559;54.176;12.102;2023-01-01T04:22:46;15.70;99.90
36552;DHT22;22559;54.176;12.102;2023-01-01T04:25:13;15.70;99.90
36552;DHT22;22559;54.176;12.102;2023-01-01T04:27:39;15.70;99.90
36552;DHT22;22559;54.176;12.102;2023-01-01T04:30:07;15.70;99.90
36552;DHT22;22559;54.176;12.102;2023-01-01T04:32:36;15.70;99.90
36552;DHT22;22559;54.176;12.102;2023-01-01T04:35:02;15.60;99.90
36552;DHT22;22559;54.176;12.102;2023-01-01T04:37:28;15.60;99.90
36552;DHT22;22559;54.176;12.102;2023-01-01T04:39:53;15.60;99.90
36552;DHT22;22559;54.176;12.102;2023-01-01T04:42:19;15.60;99.90
36552;DHT22;22559;54.176;12.102;2023-01-01T04:44:44;15.60;99.90
36552;DHT22;22559;54.176;12.102;2023-01-01T04:47:10;15.50;99.90
36552;DHT22;22559;54.176;12.102;2023-01-01T04:49:36;15.50;99.90
36552;DHT22;22559;54.176;12.102;2023-01-01T04:52:02;15.50;99.90
36552;DHT22;22559;54.176;12.102;2023-01-01T04:54:28;15.40;99.90
36552;DHT22;22559;54.176;12.102;2023-01-01T04:56:53;15.40;99.90
36552;DHT22;22559;54.176;12.102;2023-01-01T04:59:19;15.30;99.90
36552;DHT22;22559;54.176;12.102;2023-01-01T05:01:45;15.30;99.90
36552;DHT22;22559;54.176;12.102;2023-01-01T05:04:15;15.30;99.90
36552;DHT22;22559;54.176;12.102;2023-01-01T05:06:41;15.30;99.90
36552;DHT22;22559;54.176;12.102;2023-01-01T05:09:10;15.20;99.90
36552;DHT22;22559;54.176;12.102;2023-01-01T05:11:36;15.20;99.90
36552;DHT22;22559;54.176;12.102;2023-01-01T05:14:03;15.20;99.90
36552;DHT22;22559;54.176;12.102;2023-01-01T05:16:31;15.10;99.90
36552;DHT22;22559;54.176;12.102;2023-01-01T05:18:58;15.00;99.90
36552;DHT22;22559;54.176;12.102;2023-01-01T05:21:28;15.00;99.90
36552;DHT22;22559;54.176;12.102;2023-01-01T05:23:58;14.90;99.90
36552;DHT22;22559;54.176;12.102;2023-01-01T05:26:26;14.90;99.90
36552;DHT22;22559;54.176;12.102;2023-01-01T05:28:53;14.80;99.90
36552;DHT22;22559;54.176;12.102;2023-01-01T05:31:22;14.80;99.90
36552;DHT22;22559;54.176;12.102;2023-01-01T05:33:49;14.80;99.90
36552;DHT22;22559;54.176;12.102;2023-01-01T05:36:22;14.80;99.90
36552;DHT22;22559;54.176;12.102;2023-01-01T05:38:48;14.80;99.90
36552;DHT22;22559;54.176;12.102;2023-01-01T05:41:15;14.70;99.90
36552;DHT22;22559;54.176;12.102;2023-01-01T05:43:41;14.70;99.90
36552;DHT22;22559;54.176;12.102;2023-01-01T05:46:11;14.80;99.90
36552;DHT22;22559;54.176;12.102;2023-01-01T05:48:37;14.80;99.90
36552;DHT22;22559;54.176;12.102;2023-01-01T05:51:05;14.70;99.90
36552;DHT22;22559;54.176;12.102;2023-01-01T05:53:31;14.70;99.90
36552;DHT22;22559;54.176;12.102;2023-01-01T05:55:58;14.70;99.90
36552;DHT22;22559;54.176;12.102;2023-01-01T05:58:24;14.70;99.90
36552;DHT22;22559;54.176;12.102;2023-01-01T06:00:50;14.70;99.90
36552;DHT22;22559;54.176;12.102;2023-01-01T06:03:16;14.70;99.90
36552;DHT22;22559;54.176;12.102;2023-01-01T06:05:41;14.80;99.90
36552;DHT22;22559;54.176;12.102;2023-01-01T06:08:07;14.80;99.90
36552;DHT22;22559;54.176;12.102;2023-01-01T06:10:33;14.70;99.90
36552;DHT22;22559;54.176;12.102;2023-01-01T06:12:58;14.80;99.90
36552;DHT22;22559;54.176;12.102;2023-01-01T06:15:25;14.80;99.90
36552;DHT22;22559;54.176;12.102;2023-01-01T06:17:51;15.00;99.90
36552;DHT22;22559;54.176;12.102;2023-01-01T06:20:16;15.00;99.90
36552;DHT22;22559;54.176;12.102;2023-01-01T06:22:42;15.00;99.90
36552;DHT22;22559;54.176;12.102;2023-01-01T06:25:09;15.00;99.90
36552;DHT22;22559;54.176;12.102;2023-01-01T06:27:35;15.00;99.90
36552;DHT22;22559;54.176;12.102;2023-01-01T06:30:02;15.10;99.90
36552;DHT22;22559;54.176;12.102;2023-01-01T06:32:28;15.10;99.90
36552;DHT22;22559;54.176;12.102;2023-01-01T06:34:53;15.10;99.90
36552;DHT22;22559;54.176;12.102;2023-01-01T06:37:19;15.20;99.90
36552;DHT22;22559;54.176;12.102;2023-01-01T06:39:45;15.20;99.90
36552;DHT22;22559;54.176;12.102;2023-01-01T06:42:10;15.20;99.90
36552;DHT22;22559;54.176;12.102;2023-01-01T06:44:36;15.20;99.90
36552;DHT22;22559;54.176;12.102;2023-01-01T06:47:02;15.20;99.90
36552;DHT22;22559;54.176;12.102;2023-01-01T06:49:27;15.30;99.90
36552;DHT22;22559;54.176;12.102;2023-01-01T06:51:53;15.40;99.90
36552;DHT22;22559;54.176;12.102;2023-01-01T06:54:19;15.30;99.90
36552;DHT22;22559;54.176;12.102;2023-01-01T06:56:44;15.40;99.90
36552;DHT22;22559;54.176;12.102;2023-01-01T06:59:10;15.40;99.90
36552;DHT22;22559;54.176;12.102;2023-01-01T07:01:36;15.40;99.90
36552;DHT22;22559;54.176;12.102;2023-01-01T07:04:06;15.40;99.90
36552;DHT22;22559;54.176;12.102;2023-01-01T07:06:33;15.40;99.90
36552;DHT22;22559;54.176;12.102;2023-01-01T07:08:59;15.30;99.90
36552;DHT22;22559;54.176;12.102;2023-01-01T07:11:25;15.30;99.90
36552;DHT22;22559;54.176;12.102;2023-01-01T07:13:51;15.30;99.90
36552;DHT22;22559;54.176;12.102;2023-01-01T07:16:17;15.30;99.90
36552;DHT22;22559;54.176;12.102;2023-01-01T07:18:44;15.30;99.90
36552;DHT22;22559;54.176;12.102;2023-01-01T07:21:29;15.30;99.90
36552;DHT22;22559;54.176;12.102;2023-01-01T07:23:56;15.30;99.90
36552;DHT22;22559;54.176;12.102;2023-01-01T07:26:23;15.40;99.90
36552;DHT22;22559;54.176;12.102;2023-01-01T07:28:49;15.30;99.90
36552;DHT22;22559;54.176;12.102;2023-01-01T07:31:15;15.30;99.90
36552;DHT22;22559;54.176;12.102;2023-01-01T07:33:40;15.20;99.90
36552;DHT22;22559;54.176;12.102;2023-01-01T07:36:07;15.10;99.90
36552;DHT22;22559;54.176;12.102;2023-01-01T07:38:32;14.60;99.90
36552;DHT22;22559;54.176;12.102;2023-01-01T07:40:58;14.10;99.90
36552;DHT22;22559;54.176;12.102;2023-01-01T07:43:23;13.80;99.90
36552;DHT22;22559;54.176;12.102;2023-01-01T07:45:49;13.50;99.90
36552;DHT22;22559;54.176;12.102;2023-01-01T07:48:15;13.30;99.90
36552;DHT22;22559;54.176;12.102;2023-01-01T07:50:41;13.30;99.90
36552;DHT22;22559;54.176;12.102;2023-01-01T07:53:07;13.10;99.90
36552;DHT22;22559;54.176;12.102;2023-01-01T07:55:33;13.20;99.90
36552;DHT22;22559;54.176;12.102;2023-01-01T07:57:59;13.10;99.90
36552;DHT22;22559;54.176;12.102;2023-01-01T08:00:24;13.00;99.90
36552;DHT22;22559;54.176;12.102;2023-01-01T08:02:50;13.00;99.90
36552;DHT22;22559;54.176;12.102;2023-01-01T08:05:16;12.90;99.90
36552;DHT22;22559;54.176;12.102;2023-01-01T08:07:47;13.00;99.90
36552;DHT22;22559;54.176;12.102;2023-01-01T08:10:14;13.00;99.90
36552;DHT22;22559;54.176;12.102;2023-01-01T08:12:40;13.00;99.90
36552;DHT22;22559;54.176;12.102;2023-01-01T08:15:06;12.90;99.90
36552;DHT22;22559;54.176;12.102;2023-01-01T08:17:32;12.90;99.90
36552;DHT22;22559;54.176;12.102;2023-01-01T08:19:58;13.00;99.90
36552;DHT22;22559;54.176;12.102;2023-01-01T08:22:23;13.00;99.90
36552;DHT22;22559;54.176;12.102;2023-01-01T08:24:49;13.10;99.90
36552;DHT22;22559;54.176;12.102;2023-01-01T08:27:15;13.10;99.90
36552;DHT22;22559;54.176;12.102;2023-01-01T08:29:42;13.20;99.90
36552;DHT22;22559;54.176;12.102;2023-01-01T08:32:08;13.30;99.90
36552;DHT22;22559;54.176;12.102;2023-01-01T08:34:34;13.40;99.90
36552;DHT22;22559;54.176;12.102;2023-01-01T08:36:59;13.50;99.90
36552;DHT22;22559;54.176;12.102;2023-01-01T08:39:25;13.50;99.90
36552;DHT22;22559;54.176;12.102;2023-01-01T08:41:51;13.60;99.90
36552;DHT22;22559;54.176;12.102;2023-01-01T08:44:16;13.70;99.90
36552;DHT22;22559;54.176;12.102;2023-01-01T08:46:42;13.80;99.90
36552;DHT22;22559;54.176;12.102;2023-01-01T08:49:08;13.80;99.90
36552;DHT22;22559;54.176;12.102;2023-01-01T08:51:33;13.90;99.90
36552;DHT22;22559;54.176;12.102;2023-01-01T08:53:59;14.00;99.90
36552;DHT22;22559;54.176;12.102;2023-01-01T08:56:24;14.10;99.90
36552;DHT22;22559;54.176;12.102;2023-01-01T08:58:50;14.10;99.90
36552;DHT22;22559;54.176;12.102;2023-01-01T09:01:16;14.20;99.90
36552;DHT22;22559;54.176;12.102;2023-01-01T09:03:41;14.20;99.90
36552;DHT22;22559;54.176;12.102;2023-01-01T09:06:08;14.30;99.90
36552;DHT22;22559;54.176;12.102;2023-01-01T09:08:33;14.40;99.90
36552;DHT22;22559;54.176;12.102;2023-01-01T09:11:01;14.60;99.90
36552;DHT22;22559;54.176;12.102;2023-01-01T09:13:27;14.60;99.90
36552;DHT22;22559;54.176;12.102;2023-01-01T09:15:53;14.70;99.90
36552;DHT22;22559;54.176;12.102;2023-01-01T09:18:19;14.80;99.90
36552;DHT22;22559;54.176;12.102;2023-01-01T09:20:44;14.90;99.90
36552;DHT22;22559;54.176;12.102;2023-01-01T09:23:10;15.00;99.90
36552;DHT22;22559;54.176;12.102;2023-01-01T09:25:36;15.10;99.90
36552;DHT22;22559;54.176;12.102;2023-01-01T09:28:05;15.10;99.90
36552;DHT22;22559;54.176;12.102;2023-01-01T09:30:31;15.20;99.90
36552;DHT22;22559;54.176;12.102;2023-01-01T09:32:56;15.20;99.90
36552;DHT22;22559;54.176;12.102;2023-01-01T09:35:22;15.20;99.90
36552;DHT22;22559;54.176;12.102;2023-01-01T09:37:48;15.20;99.90
36552;DHT22;22559;54.176;12.102;2023-01-01T09:40:27;15.30;99.90
36552;DHT22;22559;54.176;12.102;2023-01-01T09:48:22;15.30;99.90
36552;DHT22;22559;54.176;12.102;2023-01-01T09:50:50;15.30;99.90
36552;DHT22;22559;54.176;12.102;2023-01-01T09:58:20;15.30;99.90
36552;DHT22;22559;54.176;12.102;2023-01-01T10:00:51;15.30;99.90
36552;DHT22;22559;54.176;12.102;2023-01-01T10:05:53;15.30;99.90
36552;DHT22;22559;54.176;12.102;2023-01-01T10:14:25;15.30;99.90
36552;DHT22;22559;54.176;12.102;2023-01-01T10:16:55;15.30;99.90
36552;DHT22;22559;54.176;12.102;2023-01-01T10:19:46;15.20;99.90
36552;DHT22;22559;54.176;12.102;2023-01-01T10:22:25;15.20;99.90
36552;DHT22;22559;54.176;12.102;2023-01-01T10:25:02;15.20;99.90
36552;DHT22;22559;54.176;12.102;2023-01-01T10:27:34;15.20;99.90
36552;DHT22;22559;54.176;12.102;2023-01-01T10:30:08;15.20;99.90
36552;DHT22;22559;54.176;12.102;2023-01-01T10:32:37;15.20;99.90
36552;DHT22;22559;54.176;12.102;2023-01-01T10:35:17;15.10;99.90
36552;DHT22;22559;54.176;12.102;2023-01-01T10:37:43;15.10;99.90
36552;DHT22;22559;54.176;12.102;2023-01-01T10:40:19;15.10;99.90
36552;DHT22;22559;54.176;12.102;2023-01-01T10:42:49;15.10;99.90
36552;DHT22;22559;54.176;12.102;2023-01-01T10:45:17;15.10;99.90
36552;DHT22;22559;54.176;12.102;2023-01-01T10:51:04;15.00;99.90
36552;DHT22;22559;54.176;12.102;2023-01-01T10:53:40;15.10;99.90
36552;DHT22;22559;54.176;12.102;2023-01-01T10:56:12;15.10;99.90
36552;DHT22;22559;54.176;12.102;2023-01-01T10:58:44;15.00;99.90
36552;DHT22;22559;54.176;12.102;2023-01-01T11:03:39;14.90;99.90
36552;DHT22;22559;54.176;12.102;2023-01-01T11:06:21;14.90;99.90
36552;DHT22;22559;54.176;12.102;2023-01-01T11:08:49;14.90;99.90
36552;DHT22;22559;54.176;12.102;2023-01-01T11:11:27;15.00;99.90
36552;DHT22;22559;54.176;12.102;2023-01-01T11:13:56;14.90;99.90
36552;DHT22;22559;54.176;12.102;2023-01-01T11:16:22;15.00;99.90
36552;DHT22;22559;54.176;12.102;2023-01-01T11:18:48;15.10;99.90
36552;DHT22;22559;54.176;12.102;2023-01-01T11:21:22;15.30;99.90
36552;DHT22;22559;54.176;12.102;2023-01-01T11:23:51;15.50;99.90
36552;DHT22;22559;54.176;12.102;2023-01-01T11:26:31;15.90;99.90
36552;DHT22;22559;54.176;12.102;2023-01-01T11:31:43;16.20;99.90
36552;DHT22;22559;54.176;12.102;2023-01-01T11:34:29;16.30;99.90
36552;DHT22;22559;54.176;12.102;2023-01-01T11:37:23;16.30;99.90
36552;DHT22;22559;54.176;12.102;2023-01-01T11:39:51;16.20;99.90
36552;DHT22;22559;54.176;12.102;2023-01-01T11:42:24;16.10;99.90
36552;DHT22;22559;54.176;12.102;2023-01-01T11:44:59;16.00;99.90
36552;DHT22;22559;54.176;12.102;2023-01-01T11:47:37;16.00;99.90
36552;DHT22;22559;54.176;12.102;2023-01-01T11:52:44;15.90;99.90
36552;DHT22;22559;54.176;12.102;2023-01-01T11:58:13;15.90;99.90
36552;DHT22;22559;54.176;12.102;2023-01-01T12:00:36;15.90;99.90
36552;DHT22;22559;54.176;12.102;2023-01-01T12:03:14;15.80;99.90
36552;DHT22;22559;54.176;12.102;2023-01-01T12:08:47;16.10;99.90
36552;DHT22;22559;54.176;12.102;2023-01-01T12:13:49;16.00;99.90
36552;DHT22;22559;54.176;12.102;2023-01-01T12:16:23;15.60;99.90
36552;DHT22;22559;54.176;12.102;2023-01-01T12:19:03;15.50;99.90
36552;DHT22;22559;54.176;12.102;2023-01-01T12:21:33;15.50;99.90
36552;DHT22;22559;54.176;12.102;2023-01-01T12:23:59;15.40;99.90
36552;DHT22;22559;54.176;12.102;2023-01-01T12:26:41;15.30;99.90
36552;DHT22;22559;54.176;12.102;2023-01-01T12:32:19;15.10;99.90
36552;DHT22;22559;54.176;12.102;2023-01-01T12:48:46;15.00;99.90
36552;DHT22;22559;54.176;12.102;2023-01-01T12:57:10;15.60;99.90
36552;DHT22;22559;54.176;12.102;2023-01-01T12:59:43;15.70;99.90
36552;DHT22;22559;54.176;12.102;2023-01-01T13:02:20;15.70;99.90
36552;DHT22;22559;54.176;12.102;2023-01-01T13:04:49;15.70;99.90
36552;DHT22;22559;54.176;12.102;2023-01-01T13:07:32;15.70;99.90
36552;DHT22;22559;54.176;12.102;2023-01-01T13:10:27;15.70;99.90
36552;DHT22;22559;54.176;12.102;2023-01-01T13:12:55;15.70;99.90
36552;DHT22;22559;54.176;12.102;2023-01-01T13:39:50;15.70;99.90
36552;DHT22;22559;54.176;12.102;2023-01-01T13:42:46;15.70;99.90
36552;DHT22;22559;54.176;12.102;2023-01-01T13:45:34;15.70;99.90
36552;DHT22;22559;54.176;12.102;2023-01-01T14:04:44;15.10;99.90
36552;DHT22;22559;54.176;12.102;2023-01-01T14:07:46;15.10;99.90
36552;DHT22;22559;54.176;12.102;2023-01-01T14:10:26;14.90;99.90
36552;DHT22;22559;54.176;12.102;2023-01-01T14:12:55;14.60;99.90
36552;DHT22;22559;54.176;12.102;2023-01-01T14:17:51;14.50;99.90
36552;DHT22;22559;54.176;12.102;2023-01-01T14:20:20;14.40;99.90
36552;DHT22;22559;54.176;12.102;2023-01-01T14:22:47;14.30;99.90
36552;DHT22;22559;54.176;12.102;2023-01-01T14:25:15;14.30;99.90
36552;DHT22;22559;54.176;12.102;2023-01-01T14:27:43;14.20;99.90
36552;DHT22;22559;54.176;12.102;2023-01-01T14:30:18;14.20;99.90
36552;DHT22;22559;54.176;12.102;2023-01-01T14:32:44;14.10;99.90
36552;DHT22;22559;54.176;12.102;2023-01-01T14:35:16;13.90;99.90
36552;DHT22;22559;54.176;12.102;2023-01-01T14:37:42;13.80;99.90
36552;DHT22;22559;54.176;12.102;2023-01-01T14:40:23;13.70;99.90
36552;DHT22;22559;54.176;12.102;2023-01-01T14:43:01;13.50;99.90
36552;DHT22;22559;54.176;12.102;2023-01-01T14:45:29;13.40;99.90
36552;DHT22;22559;54.176;12.102;2023-01-01T14:47:55;13.40;99.90
36552;DHT22;22559;54.176;12.102;2023-01-01T14:50:29;13.20;99.90
36552;DHT22;22559;54.176;12.102;2023-01-01T14:53:04;13.10;99.90
36552;DHT22;22559;54.176;12.102;2023-01-01T14:55:43;13.10;99.90
36552;DHT22;22559;54.176;12.102;2023-01-01T14:58:16;13.10;99.90
36552;DHT22;22559;54.176;12.102;2023-01-01T15:00:43;13.00;99.90
36552;DHT22;22559;54.176;12.102;2023-01-01T15:03:20;13.00;99.90
36552;DHT22;22559;54.176;12.102;2023-01-01T15:05:57;12.90;99.90
36552;DHT22;22559;54.176;12.102;2023-01-01T15:08:25;12.90;99.90
36552;DHT22;22559;54.176;12.102;2023-01-01T15:10:52;12.90;99.90
36552;DHT22;22559;54.176;12.102;2023-01-01T15:15:48;12.80;99.90
36552;DHT22;22559;54.176;12.102;2023-01-01T15:18:51;12.70;99.90
36552;DHT22;22559;54.176;12.102;2023-01-01T15:24:12;12.40;99.90
36552;DHT22;22559;54.176;12.102;2023-01-01T15:31:56;12.40;99.90
36552;DHT22;22559;54.176;12.102;2023-01-01T15:36:52;12.50;99.90
36552;DHT22;22559;54.176;12.102;2023-01-01T15:39:19;12.50;99.90
36552;DHT22;22559;54.176;12.102;2023-01-01T15:41:50;12.50;99.90
36552;DHT22;22559;54.176;12.102;2023-01-01T15:44:32;12.50;99.90
36552;DHT22;22559;54.176;12.102;2023-01-01T15:47:24;12.50;99.90
36552;DHT22;22559;54.176;12.102;2023-01-01T15:50:10;12.40;99.90
36552;DHT22;22559;54.176;12.102;2023-01-01T15:52:36;12.40;99.90
36552;DHT22;22559;54.176;12.102;2023-01-01T15:55:03;12.30;99.90
36552;DHT22;22559;54.176;12.102;2023-01-01T15:57:29;12.20;99.90
36552;DHT22;22559;54.176;12.102;2023-01-01T15:59:55;12.10;99.90
36552;DHT22;22559;54.176;12.102;2023-01-01T16:02:28;12.00;99.90
36552;DHT22;22559;54.176;12.102;2023-01-01T16:04:55;12.00;99.90
36552;DHT22;22559;54.176;12.102;2023-01-01T16:07:22;11.90;99.90
36552;DHT22;22559;54.176;12.102;2023-01-01T16:09:50;12.00;99.90
36552;DHT22;22559;54.176;12.102;2023-01-01T16:12:15;12.00;99.90
36552;DHT22;22559;54.176;12.102;2023-01-01T16:14:41;12.00;99.90
36552;DHT22;22559;54.176;12.102;2023-01-01T16:17:16;12.00;99.90
36552;DHT22;22559;54.176;12.102;2023-01-01T16:19:43;11.90;99.90
36552;DHT22;22559;54.176;12.102;2023-01-01T16:22:13;11.90;99.90
36552;DHT22;22559;54.176;12.102;2023-01-01T16:24:41;11.90;99.90
36552;DHT22;22559;54.176;12.102;2023-01-01T16:27:07;11.90;99.90
36552;DHT22;22559;54.176;12.102;2023-01-01T16:29:33;11.90;99.90
36552;DHT22;22559;54.176;12.102;2023-01-01T16:31:59;11.90;99.90
36552;DHT22;22559;54.176;12.102;2023-01-01T16:34:24;11.90;99.90
36552;DHT22;22559;54.176;12.102;2023-01-01T16:36:50;11.90;99.90
36552;DHT22;22559;54.176;12.102;2023-01-01T16:39:16;11.90;99.90
36552;DHT22;22559;54.176;12.102;2023-01-01T16:41:44;11.90;99.90
36552;DHT22;22559;54.176;12.102;2023-01-01T16:44:15;11.90;99.90
36552;DHT22;22559;54.176;12.102;2023-01-01T16:46:42;11.90;99.90
36552;DHT22;22559;54.176;12.102;2023-01-01T16:49:07;11.90;99.90
36552;DHT22;22559;54.176;12.102;2023-01-01T16:51:33;11.90;99.90
36552;DHT22;22559;54.176;12.102;2023-01-01T16:54:02;11.80;99.90
36552;DHT22;22559;54.176;12.102;2023-01-01T16:56:31;11.80;99.90
36552;DHT22;22559;54.176;12.102;2023-01-01T16:58:56;11.80;99.90
36552;DHT22;22559;54.176;12.102;2023-01-01T17:01:23;11.80;99.90
36552;DHT22;22559;54.176;12.102;2023-01-01T17:03:49;11.80;99.90
36552;DHT22;22559;54.176;12.102;2023-01-01T17:06:15;11.80;99.90
36552;DHT22;22559;54.176;12.102;2023-01-01T17:08:41;11.80;99.90
36552;DHT22;22559;54.176;12.102;2023-01-01T17:11:12;11.70;99.90
36552;DHT22;22559;54.176;12.102;2023-01-01T17:13:43;11.70;99.90
36552;DHT22;22559;54.176;12.102;2023-01-01T17:16:10;11.60;99.90
36552;DHT22;22559;54.176;12.102;2023-01-01T17:18:36;11.60;99.90
36552;DHT22;22559;54.176;12.102;2023-01-01T17:21:06;11.70;99.90
36552;DHT22;22559;54.176;12.102;2023-01-01T17:23:34;11.70;99.90
36552;DHT22;22559;54.176;12.102;2023-01-01T17:26:07;11.60;99.90
36552;DHT22;22559;54.176;12.102;2023-01-01T17:28:34;11.50;99.90
36552;DHT22;22559;54.176;12.102;2023-01-01T17:31:07;11.50;99.90
36552;DHT22;22559;54.176;12.102;2023-01-01T17:33:34;11.50;99.90
36552;DHT22;22559;54.176;12.102;2023-01-01T17:36:00;11.50;99.90
36552;DHT22;22559;54.176;12.102;2023-01-01T17:38:27;11.40;99.90
36552;DHT22;22559;54.176;12.102;2023-01-01T17:41:00;11.40;99.90
36552;DHT22;22559;54.176;12.102;2023-01-01T17:43:26;11.40;99.90
36552;DHT22;22559;54.176;12.102;2023-01-01T17:45:52;11.40;99.90
36552;DHT22;22559;54.176;12.102;2023-01-01T17:48:17;11.40;99.90
36552;DHT22;22559;54.176;12.102;2023-01-01T17:50:44;11.30;99.90
36552;DHT22;22559;54.176;12.102;2023-01-01T17:53:09;11.40;99.90
36552;DHT22;22559;54.176;12.102;2023-01-01T17:55:36;11.30;99.90
36552;DHT22;22559;54.176;12.102;2023-01-01T17:58:02;11.30;99.90
36552;DHT22;22559;54.176;12.102;2023-01-01T18:00:27;11.30;99.90
36552;DHT22;22559;54.176;12.102;2023-01-01T18:02:53;11.30;99.90
36552;DHT22;22559;54.176;12.102;2023-01-01T18:05:18;11.30;99.90
36552;DHT22;22559;54.176;12.102;2023-01-01T18:07:44;11.20;99.90